Time;durP1;ratioP1;P1;durP2;ratioP2;P2;SDS_P1;SDS_P2;PMS_P1;PMS_P2;Temp;Humidity;BMP_temperature;BMP_pressure;BME280_temperature;BME280_humidity;BME280_pressure;Samples;Min_cycle;Max_cycle;Signal;HPM_P1;HPM_P2
2021/12/09 00:02:27;;;;;;;9.43;8.57;;;5.70;61.60;;;;;;20505;6896;122383;-85
2021/12/09 00:04:55;;;;;;;12.70;11.40;;;5.70;62.20;;;;;;20344;6896;281584;-84
2021/12/09 00:07:20;;;;;;;11.20;9.73;;;5.90;61.30;;;;;;20386;6896;278938;-84
2021/12/09 00:09:49;;;;;;;10.23;9.20;;;6.20;60.20;;;;;;20337;6896;310192;-87
2021/12/09 00:12:16;;;;;;;10.10;9.13;;;6.50;58.70;;;;;;20329;6896;341121;-84
2021/12/09 00:14:44;;;;;;;9.90;8.95;;;6.70;57.30;;;;;;20340;6897;314064;-84
2021/12/09 00:17:12;;;;;;;9.00;8.10;;;6.80;56.30;;;;;;20341;6897;313453;-85
2021/12/09 00:19:40;;;;;;;9.30;8.50;;;6.80;55.70;;;;;;20315;6897;316120;-85
2021/12/09 00:22:08;;;;;;;8.20;7.50;;;6.80;55.10;;;;;;20529;6897;118857;-85
2021/12/09 00:24:35;;;;;;;7.43;6.30;;;6.50;55.40;;;;;;20484;6897;118669;-85
2021/12/09 00:27:03;;;;;;;6.33;5.70;;;6.10;56.50;;;;;;20537;6897;118681;-85
2021/12/09 00:29:31;;;;;;;7.50;6.87;;;5.70;57.60;;;;;;20322;6897;312561;-86
2021/12/09 00:31:59;;;;;;;8.32;7.05;;;5.80;58.00;;;;;;20321;6897;312953;-84
2021/12/09 00:34:36;;;;;;;7.00;6.40;;;6.00;57.30;;;;;;20507;6897;120681;-85
2021/12/09 00:39:52;;;;;;;8.15;7.45;;;6.00;57.30;;;;;;20358;6897;311617;-90
2021/12/09 00:42:17;;;;;;;7.75;7.15;;;6.30;55.40;;;;;;20314;6897;310537;-89
2021/12/09 00:44:44;;;;;;;7.30;6.80;;;6.30;55.50;;;;;;20333;6897;311253;-87
2021/12/09 00:47:12;;;;;;;7.00;6.40;;;6.40;54.80;;;;;;20627;6895;119065;-95
2021/12/09 00:49:40;;;;;;;7.40;6.37;;;6.20;55.30;;;;;;20562;6896;117929;-87
2021/12/09 00:52:08;;;;;;;8.23;7.53;;;5.80;56.80;;;;;;20344;6896;310387;-88
2021/12/09 00:54:39;;;;;;;8.03;7.43;;;5.70;56.70;;;;;;20229;6896;313669;-89
2021/12/09 00:57:06;;;;;;;8.73;7.95;;;5.90;56.20;;;;;;20336;6896;300013;-89
2021/12/09 00:59:34;;;;;;;7.80;7.20;;;6.10;55.60;;;;;;20533;6896;122604;-89
2021/12/09 01:02:02;;;;;;;8.80;8.00;;;5.90;55.80;;;;;;20314;6896;316236;-88
2021/12/09 01:04:29;;;;;;;7.23;6.37;;;5.80;56.30;;;;;;20511;6896;122951;-86
2021/12/09 01:06:57;;;;;;;8.80;8.00;;;5.60;56.50;;;;;;20359;6896;312509;-88
2021/12/09 01:09:25;;;;;;;10.50;9.00;;;5.70;57.00;;;;;;20343;6896;280028;-88
2021/12/09 01:11:53;;;;;;;9.82;8.82;;;5.80;56.60;;;;;;20338;6896;304660;-87
2021/12/09 01:14:21;;;;;;;10.68;9.20;;;6.00;56.20;;;;;;20309;6896;323713;-87
2021/12/09 01:16:49;;;;;;;9.13;8.33;;;6.20;56.20;;;;;;20220;6896;314487;-88
2021/12/09 01:19:17;;;;;;;7.27;6.57;;;6.30;56.10;;;;;;20566;6896;117307;-89
2021/12/09 01:24:42;;;;;;;7.20;6.27;;;5.80;57.30;;;;;;20744;6787;117627;-89
2021/12/09 01:27:19;;;;;;;7.57;6.73;;;5.40;58.30;;;;;;20718;6787;121837;-87
2021/12/09 01:29:57;;;;;;;8.50;7.20;;;5.20;59.10;;;;;;20628;6813;117693;-87
2021/12/09 01:32:35;;;;;;;8.73;7.93;;;5.10;59.80;;;;;;20374;6806;313184;-87
2021/12/09 01:35:13;;;;;;;8.30;6.90;;;5.30;60.30;;;;;;20669;6807;118020;-87
2021/12/09 01:37:57;;;;;;;7.30;6.60;;;5.30;59.80;;;;;;20661;6795;119644;-88
2021/12/09 01:40:29;;;;;;;6.77;6.03;;;5.20;60.10;;;;;;20686;6809;121462;-87
2021/12/09 01:43:08;;;;;;;9.13;8.23;;;5.30;60.30;;;;;;20114;6895;310635;-90
2021/12/09 01:45:46;;;;;;;9.57;8.18;;;5.20;60.10;;;;;;20418;6818;297762;-87
2021/12/09 01:48:24;;;;;;;9.23;8.32;;;5.60;58.90;;;;;;20410;6818;312216;-87
2021/12/09 01:51:02;;;;;;;9.93;8.93;;;5.90;57.80;;;;;;20468;6809;312841;-86
2021/12/09 01:53:41;;;;;;;12.00;9.40;;;6.30;56.50;;;;;;20401;6798;308498;-88
2021/12/09 01:56:21;;;;;;;12.20;9.85;;;6.30;56.20;;;;;;20497;6789;306426;-87
2021/12/09 01:59:02;;;;;;;20.85;10.50;;;6.40;55.70;;;;;;20422;6815;337778;-90
2021/12/09 02:01:38;;;;;;;13.63;8.57;;;6.50;55.50;;;;;;20604;6875;117663;-87
2021/12/09 02:04:16;;;;;;;21.13;11.70;;;6.20;55.90;;;;;;20388;6794;308841;-88
2021/12/09 02:06:54;;;;;;;13.23;8.10;;;6.10;56.20;;;;;;20637;6814;120052;-87
2021/12/09 02:09:32;;;;;;;11.23;8.50;;;5.90;56.60;;;;;;20659;6794;117792;-88
2021/12/09 02:12:11;;;;;;;10.63;8.80;;;5.60;57.60;;;;;;20802;6789;119334;-93
2021/12/09 02:14:48;;;;;;;11.43;7.93;;;5.30;58.40;;;;;;20615;6814;117927;-87
2021/12/09 02:17:26;;;;;;;13.47;11.33;;;5.10;59.10;;;;;;20380;6817;280311;-88
2021/12/09 02:20:04;;;;;;;20.93;12.67;;;5.30;59.60;;;;;;20346;6835;279898;-88
2021/12/09 02:22:46;;;;;;;17.80;10.30;;;5.60;58.70;;;;;;20540;6817;119035;-91
2021/12/09 02:25:19;;;;;;;16.30;12.33;;;5.60;59.10;;;;;;20320;6845;310314;-89
2021/12/09 02:27:57;;;;;;;86.73;12.13;;;5.70;58.50;;;;;;20483;6861;118453;-86
2021/12/09 02:30:35;;;;;;;54.13;11.50;;;5.60;58.50;;;;;;20477;6846;118715;-86
2021/12/09 02:33:14;;;;;;;48.07;11.13;;;5.10;59.70;;;;;;20463;6840;122164;-88
2021/12/09 02:35:52;;;;;;;18.77;9.03;;;5.10;59.80;;;;;;20529;6839;118162;-87
2021/12/09 02:38:30;;;;;;;11.03;9.63;;;4.90;60.20;;;;;;20559;6824;120201;-86
2021/12/09 02:41:10;;;;;;;15.93;13.90;;;4.80;60.70;;;;;;20491;6816;310890;-91
2021/12/09 02:43:50;;;;;;;14.23;11.37;;;5.00;60.70;;;;;;20466;6835;120166;-88
2021/12/09 02:46:27;;;;;;;11.67;10.50;;;5.10;60.40;;;;;;20600;6812;149155;-88
2021/12/09 02:49:07;;;;;;;18.13;14.97;;;4.90;60.60;;;;;;20394;6827;285777;-89
2021/12/09 02:51:45;;;;;;;18.57;15.70;;;5.20;60.80;;;;;;20365;6830;308859;-86
2021/12/09 02:54:24;;;;;;;16.00;12.20;;;5.50;59.80;;;;;;20338;6830;122488;-85
2021/12/09 02:57:02;;;;;;;19.30;12.50;;;5.50;59.50;;;;;;20665;6804;117781;-86
2021/12/09 02:59:40;;;;;;;13.93;11.60;;;5.20;59.90;;;;;;20650;6804;121851;-86
2021/12/09 03:02:19;;;;;;;15.63;12.23;;;5.00;60.50;;;;;;20690;6804;122161;-85
2021/12/09 03:04:59;;;;;;;18.47;11.97;;;4.90;61.20;;;;;;20669;6804;120956;-84
2021/12/09 03:07:35;;;;;;;18.30;12.13;;;4.80;61.70;;;;;;20666;6804;122761;-85
2021/12/09 03:10:18;;;;;;;22.23;17.27;;;4.70;62.10;;;;;;20452;6804;279616;-85
2021/12/09 03:12:50;;;;;;;16.30;13.07;;;4.90;61.80;;;;;;20597;6804;118412;-85
2021/12/09 03:15:28;;;;;;;17.07;12.23;;;4.90;61.50;;;;;;20588;6823;117685;-84
2021/12/09 03:18:06;;;;;;;19.37;16.73;;;4.90;61.50;;;;;;20449;6808;280223;-85
2021/12/09 03:20:47;;;;;;;16.50;13.30;;;5.10;61.50;;;;;;20570;6819;281003;-84
2021/12/09 03:23:28;;;;;;;16.37;12.97;;;5.00;61.10;;;;;;20544;6819;119932;-84
2021/12/09 03:26:04;;;;;;;16.07;12.33;;;5.00;61.10;;;;;;20629;6819;120583;-85
2021/12/09 03:28:42;;;;;;;18.23;16.27;;;4.80;61.60;;;;;;20423;6802;309301;-85
2021/12/09 03:31:21;;;;;;;14.97;12.83;;;5.10;61.30;;;;;;20662;6807;117992;-85
2021/12/09 03:33:59;;;;;;;20.10;16.73;;;5.10;61.30;;;;;;20361;6801;313308;-83
2021/12/09 03:36:36;;;;;;;20.10;13.90;;;5.30;60.90;;;;;;20729;6768;119838;-84
2021/12/09 03:39:16;;;;;;;18.80;15.93;;;5.30;60.70;;;;;;20589;6768;309031;-84
2021/12/09 03:41:52;;;;;;;15.67;12.80;;;5.50;60.30;;;;;;20734;6785;117845;-85
2021/12/09 03:44:30;;;;;;;15.50;12.60;;;5.40;60.20;;;;;;20572;6783;118702;-87
2021/12/09 03:47:08;;;;;;;20.73;16.77;;;5.30;60.70;;;;;;20612;6753;308244;-84
2021/12/09 03:49:47;;;;;;;19.77;17.17;;;5.70;60.10;;;;;;20612;6753;310495;-84
2021/12/09 03:52:26;;;;;;;21.92;17.17;;;5.70;60.10;;;;;;20539;6753;335171;-85
2021/12/09 03:55:05;;;;;;;14.67;13.20;;;6.00;58.90;;;;;;20731;6785;123844;-85
2021/12/09 03:57:42;;;;;;;17.63;13.07;;;5.90;58.80;;;;;;20821;6781;72527;-85
2021/12/09 04:00:20;;;;;;;19.90;16.67;;;5.70;59.80;;;;;;20500;6772;306683;-84
2021/12/09 04:02:58;;;;;;;18.75;16.70;;;5.60;59.70;;;;;;20450;6787;293841;-84
2021/12/09 04:05:36;;;;;;;21.37;17.08;;;5.90;59.10;;;;;;20340;6839;340603;-84
2021/12/09 04:08:14;;;;;;;24.55;17.30;;;6.20;58.20;;;;;;20366;6834;339475;-85
2021/12/09 04:10:52;;;;;;;22.50;17.90;;;6.40;57.30;;;;;;20451;6797;299456;-84
2021/12/09 04:13:32;;;;;;;19.63;17.10;;;6.50;57.10;;;;;;20284;6798;316669;-84
2021/12/09 04:16:11;;;;;;;25.12;17.87;;;6.60;56.70;;;;;;20456;6802;338529;-85
2021/12/09 04:18:49;;;;;;;20.17;16.80;;;6.70;56.20;;;;;;20458;6787;306709;-83
2021/12/09 04:21:27;;;;;;;19.20;16.27;;;6.70;55.90;;;;;;20421;6802;310036;-83
2021/12/09 04:24:10;;;;;;;16.77;13.03;;;6.70;55.60;;;;;;20465;6823;118465;-85
2021/12/09 04:26:49;;;;;;;16.70;15.00;;;6.40;56.00;;;;;;20342;6823;310279;-86
2021/12/09 04:29:26;;;;;;;15.33;12.23;;;6.30;56.50;;;;;;20586;6823;117531;-85
2021/12/09 04:32:04;;;;;;;17.07;15.27;;;6.10;56.90;;;;;;20366;6824;309224;-87
2021/12/09 04:34:44;;;;;;;13.37;11.90;;;6.10;57.40;;;;;;20538;6824;119509;-84
2021/12/09 04:37:20;;;;;;;14.37;11.83;;;5.90;57.50;;;;;;20634;6824;121075;-86
2021/12/09 04:39:59;;;;;;;12.73;11.13;;;5.70;58.30;;;;;;20607;6824;118686;-85
2021/12/09 04:42:36;;;;;;;14.07;11.30;;;5.40;59.00;;;;;;20531;6824;121951;-84
2021/12/09 04:45:14;;;;;;;17.03;11.87;;;5.20;59.70;;;;;;20646;6819;119592;-83
2021/12/09 04:47:52;;;;;;;23.97;17.57;;;5.00;60.20;;;;;;20388;6805;279634;-84
2021/12/09 04:50:29;;;;;;;29.52;19.50;;;5.20;60.50;;;;;;20385;6819;279006;-85
2021/12/09 04:53:07;;;;;;;24.73;19.60;;;5.60;59.70;;;;;;20335;6819;344241;-87
2021/12/09 04:55:46;;;;;;;16.57;14.73;;;5.90;58.80;;;;;;20589;6824;120670;-89
2021/12/09 04:58:24;;;;;;;21.80;13.90;;;5.80;58.70;;;;;;20557;6824;122517;-86
2021/12/09 05:01:02;;;;;;;21.77;12.97;;;5.50;59.40;;;;;;20630;6824;118240;-86
2021/12/09 05:03:44;;;;;;;14.50;12.37;;;5.30;60.20;;;;;;20485;6824;121029;-86
2021/12/09 05:06:18;;;;;;;15.93;11.73;;;5.10;60.70;;;;;;20663;6819;120711;-88
2021/12/09 05:08:56;;;;;;;13.70;12.13;;;4.90;61.20;;;;;;20680;6822;119027;-87
2021/12/09 05:11:48;;;;;;;11.47;10.40;;;4.90;61.80;;;;;;20676;6819;117552;-90
2021/12/09 05:14:12;;;;;;;13.70;11.33;;;4.80;62.10;;;;;;20430;6795;67258;-89
2021/12/09 05:16:49;;;;;;;15.77;14.17;;;4.70;62.30;;;;;;20565;6780;279553;-89
2021/12/09 05:19:27;;;;;;;17.85;15.95;;;4.90;62.30;;;;;;20572;6780;279626;-87
2021/12/09 05:22:05;;;;;;;16.70;15.10;;;5.40;61.10;;;;;;20567;6780;306539;-90
2021/12/09 05:24:46;;;;;;;16.10;14.60;;;5.80;59.90;;;;;;20540;6780;336292;-88
2021/12/09 05:27:21;;;;;;;13.10;11.80;;;6.00;59.00;;;;;;20788;6780;119806;-88
2021/12/09 05:30:08;;;;;;;14.67;13.17;;;5.90;59.10;;;;;;20580;6780;308828;-88
2021/12/09 05:32:43;;;;;;;12.57;11.37;;;5.90;59.10;;;;;;20630;6783;119789;-87
2021/12/09 05:35:21;;;;;;;13.52;12.23;;;5.80;59.20;;;;;;20565;6767;310475;-87
2021/12/09 05:37:59;;;;;;;12.70;10.07;;;5.90;59.10;;;;;;20841;6774;69538;-88
2021/12/09 05:40:36;;;;;;;10.30;9.17;;;5.80;59.20;;;;;;20680;6778;117917;-87
2021/12/09 05:43:13;;;;;;;11.27;10.27;;;5.60;59.90;;;;;;20480;6769;315193;-88
2021/12/09 05:45:50;;;;;;;11.40;9.33;;;5.60;60.00;;;;;;20680;6802;118413;-85
2021/12/09 05:48:29;;;;;;;10.03;8.93;;;5.40;60.30;;;;;;20732;6769;121371;-87
2021/12/09 05:51:07;;;;;;;12.07;10.90;;;5.40;60.30;;;;;;20486;6798;281946;-86
2021/12/09 05:53:46;;;;;;;12.20;10.57;;;5.60;60.30;;;;;;20401;6790;284559;-85
2021/12/09 05:56:32;;;;;;;;;;;;;;;;;;;;;
2021/12/09 05:59:00;;;;;;;12.13;10.90;;;5.80;59.00;;;;;;20428;6792;337608;-87
2021/12/09 06:01:38;;;;;;;10.23;9.23;;;5.90;59.00;;;;;;20743;6777;119388;-86
2021/12/09 06:04:16;;;;;;;10.03;8.73;;;5.80;59.00;;;;;;20518;6807;121984;-88
2021/12/09 06:06:53;;;;;;;13.40;11.57;;;5.60;59.60;;;;;;20491;6795;312169;-88
2021/12/09 06:09:32;;;;;;;10.87;9.77;;;5.60;59.60;;;;;;20723;6790;120228;-86
2021/12/09 06:12:09;;;;;;;13.05;11.80;;;5.60;59.50;;;;;;20491;6795;338805;-86
2021/12/09 06:14:47;;;;;;;12.85;11.60;;;5.70;59.30;;;;;;20455;6797;311689;-86
2021/12/09 06:17:25;;;;;;;12.70;11.60;;;6.00;58.50;;;;;;20520;6781;279682;-88
2021/12/09 06:20:03;;;;;;;11.87;8.90;;;6.30;57.70;;;;;;20716;6787;119479;-87
2021/12/09 06:22:41;;;;;;;12.67;11.37;;;6.10;57.70;;;;;;20413;6789;438282;-88
2021/12/09 06:25:20;;;;;;;12.32;11.07;;;6.10;57.90;;;;;;20542;6787;282109;-88
2021/12/09 06:27:58;;;;;;;10.80;9.40;;;6.10;57.60;;;;;;20682;6793;121874;-88
2021/12/09 06:30:35;;;;;;;9.30;8.37;;;6.00;57.50;;;;;;20711;6805;120616;-86
2021/12/09 06:33:14;;;;;;;8.47;7.77;;;5.70;58.30;;;;;;20587;6799;118043;-91
2021/12/09 06:35:51;;;;;;;8.77;7.93;;;5.50;59.20;;;;;;20690;6792;121153;-87
2021/12/09 06:38:29;;;;;;;11.13;10.23;;;5.30;59.90;;;;;;20513;6781;312415;-85
2021/12/09 06:41:08;;;;;;;10.60;9.60;;;5.80;59.20;;;;;;20474;6791;340561;-88
2021/12/09 06:43:46;;;;;;;10.93;9.93;;;5.80;58.60;;;;;;20414;6791;311942;-89
2021/12/09 06:46:27;;;;;;;11.37;7.97;;;6.10;57.50;;;;;;20674;6790;119761;-88
2021/12/09 06:49:02;;;;;;;8.20;7.50;;;5.90;57.50;;;;;;20726;6787;117332;-88
2021/12/09 06:51:40;;;;;;;7.87;7.17;;;5.60;58.20;;;;;;20713;6791;118291;-89
2021/12/09 06:54:19;;;;;;;10.43;9.43;;;5.40;59.00;;;;;;20309;6791;314754;-87
2021/12/09 06:56:57;;;;;;;8.83;7.03;;;5.50;59.00;;;;;;20696;6791;118541;-88
2021/12/09 06:59:34;;;;;;;10.10;9.10;;;5.50;59.00;;;;;;20501;6791;299596;-90
2021/12/09 07:02:12;;;;;;;8.03;7.23;;;5.60;58.80;;;;;;20712;6791;117943;-88
2021/12/09 07:04:50;;;;;;;8.83;7.87;;;5.60;58.70;;;;;;20677;6794;119602;-88
2021/12/09 07:07:28;;;;;;;9.20;6.90;;;5.30;59.10;;;;;;20765;6794;116673;-94
2021/12/09 07:10:06;;;;;;;11.63;10.37;;;5.10;59.70;;;;;;20540;6794;306882;-91
2021/12/09 07:12:44;;;;;;;11.43;8.27;;;5.30;59.80;;;;;;20659;6798;119596;-87
2021/12/09 07:15:22;;;;;;;11.97;10.67;;;5.30;59.50;;;;;;20588;6784;308071;-89
2021/12/09 07:18:00;;;;;;;10.37;8.77;;;5.50;59.50;;;;;;20704;6784;118047;-86
2021/12/09 07:20:38;;;;;;;9.57;8.60;;;5.40;59.30;;;;;;20690;6783;121508;-87
2021/12/09 07:23:16;;;;;;;11.23;8.47;;;5.30;59.90;;;;;;20756;6749;117994;-85
2021/12/09 07:25:53;;;;;;;16.13;11.87;;;5.10;60.30;;;;;;20569;6769;309224;-87
2021/12/09 07:28:31;;;;;;;14.32;12.15;;;5.30;60.40;;;;;;20520;6769;307677;-86
2021/12/09 07:31:09;;;;;;;10.97;10.00;;;5.70;59.50;;;;;;20754;6771;117711;-86
2021/12/09 07:33:50;;;;;;;15.10;12.97;;;5.60;59.20;;;;;;20260;6769;313368;-85
2021/12/09 07:36:25;;;;;;;15.05;13.55;;;5.70;59.20;;;;;;20367;6846;281444;-88
2021/12/09 07:39:03;;;;;;;15.63;10.50;;;5.90;59.10;;;;;;20713;6789;117807;-86
2021/12/09 07:41:41;;;;;;;18.93;13.97;;;5.80;58.60;;;;;;20574;6772;278264;-86
2021/12/09 07:44:20;;;;;;;12.17;10.87;;;5.90;59.00;;;;;;20580;6790;119045;-88
2021/12/09 07:46:58;;;;;;;12.53;10.17;;;5.70;59.00;;;;;;20758;6789;119614;-91
2021/12/09 07:49:37;;;;;;;10.43;9.40;;;5.30;60.40;;;;;;20695;6792;118203;-88
2021/12/09 07:52:14;;;;;;;13.77;9.83;;;5.30;60.40;;;;;;20691;6785;117472;-88
2021/12/09 07:54:53;;;;;;;13.63;9.57;;;5.10;61.00;;;;;;20698;6785;120441;-87
2021/12/09 07:57:33;;;;;;;11.00;9.30;;;5.00;61.40;;;;;;20703;6785;117236;-87
2021/12/09 08:00:11;;;;;;;13.93;9.60;;;4.90;61.80;;;;;;20711;6785;121246;-87
2021/12/09 08:02:47;;;;;;;10.83;9.30;;;4.80;62.10;;;;;;20659;6785;121483;-87
2021/12/09 08:05:25;;;;;;;14.82;12.30;;;4.70;62.50;;;;;;20544;6785;310306;-88
2021/12/09 08:08:03;;;;;;;12.30;10.43;;;5.00;62.50;;;;;;20715;6785;118581;-86
2021/12/09 08:10:41;;;;;;;12.90;11.60;;;5.10;62.00;;;;;;20480;6785;278634;-86
2021/12/09 08:13:19;;;;;;;11.03;10.00;;;5.30;61.70;;;;;;20642;6785;117868;-87
2021/12/09 08:15:56;;;;;;;13.20;11.90;;;5.40;61.30;;;;;;20478;6785;312238;-87
2021/12/09 08:18:53;;;;;;;12.13;10.83;;;5.60;61.10;;;;;;20657;6785;118055;-85
2021/12/09 08:21:12;;;;;;;13.70;12.50;;;5.60;60.80;;;;;;20402;6856;310434;-85
2021/12/09 08:23:49;;;;;;;10.83;9.07;;;5.80;60.70;;;;;;20598;6785;118735;-87
2021/12/09 08:26:27;;;;;;;11.47;9.00;;;5.80;60.40;;;;;;20706;6785;121260;-88
2021/12/09 08:29:05;;;;;;;11.73;8.80;;;5.60;60.80;;;;;;20678;6785;118943;-87
2021/12/09 08:31:42;;;;;;;12.03;10.93;;;5.40;61.30;;;;;;20726;6785;120380;-87
2021/12/09 08:34:20;;;;;;;15.63;10.40;;;5.30;61.80;;;;;;20551;6785;119865;-87
2021/12/09 08:36:57;;;;;;;10.80;8.33;;;5.20;62.10;;;;;;20732;6782;120685;-86
2021/12/09 08:39:35;;;;;;;12.50;11.20;;;5.10;62.40;;;;;;20519;6782;311034;-86
2021/12/09 08:42:16;;;;;;;12.07;10.60;;;5.40;62.20;;;;;;20521;6782;299707;-87
2021/12/09 08:44:51;;;;;;;14.18;11.45;;;5.80;60.90;;;;;;20496;6785;309651;-87
2021/12/09 08:47:29;;;;;;;12.17;9.03;;;6.10;59.70;;;;;;20720;6785;119803;-86
2021/12/09 08:50:07;;;;;;;51.00;42.27;;;6.10;59.50;;;;;;20524;6785;280225;-87
2021/12/09 08:52:44;;;;;;;23.60;21.08;;;6.10;59.60;;;;;;20460;6785;308651;-90
2021/12/09 08:55:24;;;;;;;7.53;6.73;;;6.40;59.00;;;;;;20730;6785;118031;-89
2021/12/09 08:58:01;;;;;;;8.38;7.50;;;6.30;59.00;;;;;;20536;6785;280095;-87
2021/12/09 09:00:39;;;;;;;8.05;7.18;;;6.30;58.80;;;;;;20471;6785;342152;-87
2021/12/09 09:03:17;;;;;;;7.23;6.60;;;6.50;57.90;;;;;;20523;6785;309576;-88
2021/12/09 09:05:56;;;;;;;9.17;7.27;;;6.70;57.10;;;;;;20510;6785;308479;-89
2021/12/09 09:08:33;;;;;;;8.20;5.77;;;6.80;56.80;;;;;;20683;6785;117626;-87
2021/12/09 09:11:11;;;;;;;7.37;6.70;;;6.60;57.20;;;;;;20516;6785;302326;-87
2021/12/09 09:13:49;;;;;;;7.33;5.60;;;6.60;57.80;;;;;;20636;6785;121376;-87
2021/12/09 09:16:27;;;;;;;7.72;5.80;;;6.40;58.10;;;;;;20492;6785;280900;-88
2021/12/09 09:19:05;;;;;;;6.65;5.87;;;6.50;58.30;;;;;;20515;6785;338767;-88
2021/12/09 09:21:43;;;;;;;5.43;4.93;;;6.70;57.90;;;;;;20713;6785;117193;-85
2021/12/09 09:24:21;;;;;;;9.60;5.30;;;6.60;57.90;;;;;;20581;6785;120763;-87
2021/12/09 09:26:59;;;;;;;6.10;5.10;;;6.30;58.70;;;;;;20375;6828;339519;-87
2021/12/09 09:29:39;;;;;;;6.47;5.83;;;6.40;58.90;;;;;;20379;6830;310259;-86
2021/12/09 09:32:15;;;;;;;7.05;6.28;;;6.60;58.30;;;;;;20472;6793;339486;-87
2021/12/09 09:34:54;;;;;;;6.53;4.87;;;6.80;57.60;;;;;;20624;6808;118163;-85
2021/12/09 09:37:31;;;;;;;5.97;5.50;;;6.70;57.80;;;;;;20483;6791;279442;-86
2021/12/09 09:40:09;;;;;;;7.03;6.23;;;6.70;58.10;;;;;;20458;6798;312165;-88
2021/12/09 09:43:00;;;;;;;7.03;4.60;;;7.00;57.70;;;;;;20582;6808;121493;-85
2021/12/09 09:45:24;;;;;;;4.70;4.30;;;6.80;57.90;;;;;;20594;6880;119979;-88
2021/12/09 09:48:02;;;;;;;6.30;4.60;;;6.60;58.70;;;;;;20687;6797;118020;-84
2021/12/09 09:50:40;;;;;;;6.03;5.43;;;6.30;59.40;;;;;;20403;6809;316723;-86
2021/12/09 09:53:17;;;;;;;6.57;5.30;;;6.40;59.70;;;;;;20310;6815;313116;-86
2021/12/09 09:55:55;;;;;;;6.43;4.10;;;6.80;58.70;;;;;;20671;6795;120909;-86
2021/12/09 09:58:33;;;;;;;4.73;4.10;;;6.70;58.60;;;;;;20639;6795;117820;-87
2021/12/09 10:01:10;;;;;;;5.37;4.80;;;6.50;59.30;;;;;;20495;6795;300173;-84
2021/12/09 10:03:48;;;;;;;5.50;4.40;;;6.60;59.60;;;;;;20422;6795;312199;-84
2021/12/09 10:06:26;;;;;;;4.80;4.30;;;6.90;58.60;;;;;;20493;6779;308093;-85
2021/12/09 10:09:04;;;;;;;6.87;4.27;;;7.20;57.60;;;;;;20722;6794;67295;-85
2021/12/09 10:11:42;;;;;;;4.17;3.87;;;7.10;57.70;;;;;;20730;6779;117608;-85
2021/12/09 10:14:20;;;;;;;4.87;3.63;;;6.80;58.40;;;;;;20543;6794;120204;-85
2021/12/09 10:17:10;;;;;;;3.60;3.40;;;6.60;59.30;;;;;;20695;6783;122226;-85
2021/12/09 10:19:49;;;;;;;3.37;3.07;;;6.40;60.00;;;;;;20627;6822;116845;-86
2021/12/09 10:22:26;;;;;;;3.70;3.33;;;6.20;60.40;;;;;;20558;6819;118188;-84
2021/12/09 10:25:05;;;;;;;4.00;3.60;;;6.00;61.70;;;;;;20638;6803;117396;-85
2021/12/09 10:27:45;;;;;;;4.10;3.80;;;6.00;61.10;;;;;;20316;6864;281643;-83
2021/12/09 10:30:22;;;;;;;4.32;3.97;;;6.30;60.50;;;;;;20443;6805;341518;-86
2021/12/09 10:33:05;;;;;;;4.07;3.67;;;6.70;59.30;;;;;;20448;6800;338881;-86
2021/12/09 10:35:43;;;;;;;3.70;3.50;;;7.00;58.30;;;;;;20707;6789;120433;-86
2021/12/09 10:38:20;;;;;;;3.40;2.90;;;7.00;58.30;;;;;;20676;6789;116360;-85
2021/12/09 10:40:59;;;;;;;3.90;3.50;;;6.70;58.80;;;;;;20460;6789;308367;-84
2021/12/09 10:43:36;;;;;;;4.30;3.90;;;6.80;58.20;;;;;;20384;6789;312823;-86
2021/12/09 10:46:14;;;;;;;4.18;3.87;;;7.10;57.20;;;;;;20458;6789;340380;-86
2021/12/09 10:48:52;;;;;;;4.17;3.77;;;7.40;57.70;;;;;;20485;6827;311365;-86
2021/12/09 10:51:39;;;;;;;4.00;3.70;;;7.70;57.60;;;;;;20528;6796;308662;-85
2021/12/09 10:54:17;;;;;;;4.47;4.07;;;7.90;57.60;;;;;;20371;6796;308979;-86
2021/12/09 10:56:51;;;;;;;4.07;3.60;;;8.10;57.10;;;;;;20514;6822;276974;-85
2021/12/09 10:59:33;;;;;;;3.77;3.20;;;8.20;56.40;;;;;;20765;6770;117856;-85
2021/12/09 11:02:11;;;;;;;3.57;3.37;;;8.00;56.60;;;;;;20783;6770;119860;-85
2021/12/09 11:05:02;;;;;;;5.30;3.60;;;7.60;57.50;;;;;;20789;6769;119478;-86
2021/12/09 11:07:40;;;;;;;3.63;3.43;;;7.30;58.30;;;;;;20741;6770;118077;-87
2021/12/09 11:10:24;;;;;;;3.83;3.53;;;7.10;59.30;;;;;;20510;6786;280440;-88
2021/12/09 11:13:06;;;;;;;4.70;3.90;;;7.20;58.60;;;;;;20468;6786;308614;-87
2021/12/09 11:15:55;;;;;;;4.12;3.80;;;7.50;57.30;;;;;;20511;6782;308903;-88
2021/12/09 11:18:33;;;;;;;4.47;4.00;;;7.80;56.70;;;;;;20123;6854;279469;-88
2021/12/09 11:21:11;;;;;;;4.00;3.70;;;8.00;56.10;;;;;;20475;6790;303904;-88
2021/12/09 11:23:52;;;;;;;3.93;3.40;;;8.20;56.40;;;;;;20635;6799;123103;-88
2021/12/09 11:26:46;;;;;;;3.53;3.23;;;8.00;56.60;;;;;;20661;6808;119568;-87
2021/12/09 11:29:21;;;;;;;3.83;3.50;;;7.70;57.60;;;;;;20471;6808;309512;-88
2021/12/09 11:32:19;;;;;;;3.63;3.43;;;7.70;56.80;;;;;;20760;6783;119642;-87
2021/12/09 11:35:01;;;;;;;3.40;3.20;;;7.60;57.10;;;;;;20587;6786;335611;-88
2021/12/09 11:37:38;;;;;;;3.90;3.60;;;7.70;55.80;;;;;;20458;6799;309667;-88
2021/12/09 11:40:14;;;;;;;3.53;3.33;;;7.90;56.20;;;;;;20458;6803;298171;-87
2021/12/09 11:42:58;;;;;;;3.40;3.20;;;8.20;56.10;;;;;;20614;6818;117662;-90
2021/12/09 11:45:33;;;;;;;2.90;2.60;;;8.00;56.20;;;;;;20795;6777;117923;-88
2021/12/09 11:48:11;;;;;;;3.60;3.30;;;7.70;57.10;;;;;;20562;6767;276081;-88
2021/12/09 11:50:48;;;;;;;4.10;3.07;;;7.70;56.70;;;;;;20784;6767;117555;-87
2021/12/09 11:53:34;;;;;;;3.10;2.90;;;7.70;57.00;;;;;;20682;6767;121678;-87
2021/12/09 11:56:24;;;;;;;3.13;2.90;;;7.20;58.00;;;;;;20790;6777;117516;-87
2021/12/09 11:59:18;;;;;;;3.20;3.00;;;7.20;58.00;;;;;;20355;6892;311399;-87
2021/12/09 12:07:32;;;;;;;5.40;2.73;;;7.50;57.80;;;;;;19685;7136;118947;-89
2021/12/09 12:13:07;;;;;;;4.57;2.67;;;7.60;58.40;;;;;;20587;6808;120946;-89
2021/12/09 12:15:49;;;;;;;3.20;2.57;;;7.70;58.80;;;;;;20676;6791;119766;-87
2021/12/09 12:21:54;;;;;;;3.00;2.70;;;7.60;59.90;;;;;;20369;6820;302416;-88
2021/12/09 12:24:32;;;;;;;2.90;2.60;;;7.90;58.50;;;;;;20131;6878;345587;-88
2021/12/09 12:27:00;;;;;;;3.30;2.60;;;8.30;57.20;;;;;;20306;6892;279726;-88
2021/12/09 12:29:58;;;;;;;3.37;2.40;;;8.70;55.70;;;;;;20348;6835;308976;-88
2021/12/09 12:35:48;;;;;;;3.10;2.80;;;8.70;56.20;;;;;;20590;6817;117709;-87
2021/12/09 12:38:34;;;;;;;2.40;2.20;;;8.60;56.00;;;;;;20496;6893;123195;-87
2021/12/09 12:41:09;;;;;;;3.00;2.10;;;8.40;56.70;;;;;;20609;6869;119340;-87
2021/12/09 12:43:52;;;;;;;2.30;2.10;;;8.30;57.60;;;;;;20526;6811;118356;-87
2021/12/09 12:46:59;;;;;;;2.57;2.37;;;8.10;58.10;;;;;;20573;6828;121026;-88
2021/12/09 12:49:51;;;;;;;2.80;2.57;;;8.00;58.60;;;;;;20439;6807;310414;-88
2021/12/09 12:52:17;;;;;;;4.00;2.20;;;8.30;57.50;;;;;;20626;6808;121459;-88
2021/12/09 12:54:59;;;;;;;4.33;2.13;;;8.40;57.90;;;;;;20451;6807;279217;-88
2021/12/09 12:57:35;;;;;;;2.57;2.37;;;8.70;56.50;;;;;;20659;6807;117864;-87
2021/12/09 13:00:29;;;;;;;2.90;1.97;;;8.70;56.70;;;;;;20719;6797;120638;-87
2021/12/09 13:03:15;;;;;;;2.50;2.03;;;8.60;57.40;;;;;;20643;6808;116986;-87
2021/12/09 13:06:08;;;;;;;2.57;2.00;;;8.50;58.30;;;;;;20692;6846;118039;-89
2021/12/09 13:08:48;;;;;;;2.20;2.10;;;8.50;58.60;;;;;;20421;6860;312750;-86
2021/12/09 13:11:23;;;;;;;2.60;2.40;;;8.70;55.90;;;;;;20585;6879;120419;-88
2021/12/09 13:14:05;;;;;;;5.87;2.10;;;8.80;55.60;;;;;;20541;6810;67941;-89
2021/12/09 13:16:43;;;;;;;2.43;2.27;;;8.60;56.00;;;;;;20431;6793;311823;-88
2021/12/09 13:19:21;;;;;;;2.63;2.37;;;8.80;55.00;;;;;;20704;6853;120837;-88
2021/12/09 13:21:57;;;;;;;2.70;1.90;;;8.70;55.00;;;;;;20701;6797;117416;-87
2021/12/09 13:24:42;;;;;;;3.27;2.00;;;8.50;55.60;;;;;;20443;6797;147972;-87
2021/12/09 13:27:29;;;;;;;2.33;2.13;;;8.40;56.40;;;;;;20445;6803;292336;-86
2021/12/09 13:33:39;;;;;;;4.57;1.90;;;8.70;55.90;;;;;;20205;6883;120047;-87
2021/12/09 13:39:24;;;;;;;2.67;2.10;;;8.40;56.60;;;;;;20638;6812;118878;-86
2021/12/09 13:47:53;;;;;;;2.30;2.10;;;9.00;53.50;;;;;;20414;6812;280984;-88
2021/12/09 13:56:21;;;;;;;2.10;1.90;;;9.00;53.90;;;;;;20690;6781;118647;-86
2021/12/09 13:58:59;;;;;;;2.30;2.10;;;8.70;54.70;;;;;;20642;6812;118321;-87
2021/12/09 14:01:37;;;;;;;4.27;1.83;;;8.50;55.30;;;;;;20618;6814;121201;-87
2021/12/09 14:04:19;;;;;;;5.70;2.23;;;8.30;55.30;;;;;;20511;6814;118136;-87
2021/12/09 14:07:00;;;;;;;3.97;2.03;;;8.10;55.80;;;;;;20669;6799;116429;-86
2021/12/09 14:09:31;;;;;;;3.03;1.90;;;7.90;55.80;;;;;;20557;6804;117196;-87
2021/12/09 14:12:07;;;;;;;2.43;1.80;;;7.70;55.80;;;;;;20498;6868;117635;-84
2021/12/09 14:15:04;;;;;;;4.07;2.23;;;7.50;56.30;;;;;;20420;6919;121303;-86